createdAt,value
2023-02-22T08:57:53.843Z,99166.50
2023-02-22T09:00:25.355Z,99164.28
2023-02-22T09:02:54.114Z,99158.59
2023-02-22T09:05:23.536Z,99158.84
2023-02-22T09:07:52.144Z,99154.19
2023-02-22T09:10:25.502Z,99147.75
2023-02-22T09:12:56.611Z,99155.06
2023-02-22T09:15:26.577Z,99154.81
2023-02-22T09:17:55.765Z,99154.53
2023-02-22T09:20:28.677Z,99147.59
2023-02-22T09:22:57.634Z,99150.81
2023-02-22T09:25:27.262Z,99154.13
2023-02-22T09:27:58.349Z,99152.22
2023-02-22T09:30:32.043Z,99152.19
2023-02-22T09:33:03.620Z,99149.56
2023-02-22T09:35:36.266Z,99146.31
2023-02-22T09:38:07.407Z,99145.50
2023-02-22T09:40:44.912Z,99137.22
2023-02-22T09:43:41.749Z,99138.06
2023-02-22T09:46:21.876Z,99138.25
2023-02-22T09:49:01.792Z,99138.38
2023-02-22T09:51:36.746Z,99134.28
2023-02-22T09:54:19.481Z,99119.09
2023-02-22T09:56:50.109Z,99123.66
2023-02-22T09:59:27.047Z,99128.19
2023-02-22T10:02:11.203Z,99117.41
2023-02-22T10:04:44.484Z,99117.59
2023-02-22T10:07:19.980Z,99119.63
2023-02-22T10:09:51.056Z,99114.94
2023-02-22T10:12:30.757Z,99107.53
2023-02-22T10:15:43.178Z,99112.22
2023-02-22T10:19:01.984Z,99114.38
2023-02-22T10:21:55.957Z,99108.03
2023-02-22T10:24:39.787Z,99111.00
2023-02-22T10:27:15.795Z,99111.53
2023-02-22T10:29:47.809Z,99101.91
2023-02-22T10:32:29.845Z,99104.97
2023-02-22T10:35:05.523Z,99103.03
2023-02-22T10:37:35.567Z,99110.47
2023-02-22T10:40:17.864Z,99106.06
2023-02-22T10:42:47.388Z,99096.47
2023-02-22T10:45:28.445Z,99094.66
2023-02-22T10:48:01.395Z,99097.78
2023-02-22T10:50:34.870Z,99097.59
2023-02-22T10:53:04.197Z,99103.28
2023-02-22T10:55:33.194Z,99095.41
2023-02-22T10:58:07.009Z,99091.72
2023-02-22T11:00:38.425Z,99091.69
2023-02-22T11:03:20.861Z,99095.72
2023-02-22T11:05:50.307Z,99091.34
2023-02-22T11:08:29.257Z,99084.50
2023-02-22T11:11:02.499Z,99086.84
2023-02-22T11:13:34.463Z,99085.00
2023-02-22T11:16:19.612Z,99085.72
2023-02-22T11:18:50.205Z,99080.50
2023-02-22T11:21:24.584Z,99082.84
2023-02-22T11:24:04.638Z,99078.53
2023-02-22T11:26:42.663Z,99073.22
2023-02-22T11:29:21.026Z,99077.41
2023-02-22T11:31:50.799Z,99067.88
2023-02-22T11:34:35.185Z,99067.09
2023-02-22T11:37:36.868Z,99061.97
2023-02-22T11:40:13.319Z,99055.91
2023-02-22T11:42:41.960Z,99057.44
2023-02-22T11:45:14.579Z,99049.78
2023-02-22T11:47:53.684Z,99053.16
2023-02-22T11:50:33.141Z,99048.06
2023-02-22T11:53:28.612Z,99049.66
2023-02-22T11:56:18.885Z,99040.28
2023-02-22T11:59:02.791Z,99047.03
2023-02-22T12:01:42.223Z,99033.31
2023-02-22T12:04:51.952Z,99030.63
2023-02-22T12:07:46.046Z,99033.09
2023-02-22T12:10:31.299Z,99032.03
2023-02-22T12:13:22.029Z,99036.13
2023-02-22T12:16:01.511Z,99025.91
2023-02-22T12:18:38.546Z,99021.50
2023-02-22T12:21:17.267Z,99015.47
2023-02-22T12:23:55.028Z,99018.72
2023-02-22T12:26:30.443Z,99018.63
2023-02-22T12:29:06.047Z,99012.69
2023-02-22T12:31:45.562Z,99013.38
2023-02-22T12:34:30.528Z,99008.28
2023-02-22T12:37:08.888Z,99020.97
2023-02-22T12:39:53.818Z,99011.56
2023-02-22T12:42:32.155Z,99010.63
2023-02-22T12:45:10.389Z,99009.69
2023-02-22T12:47:47.200Z,99005.41
2023-02-22T12:50:20.376Z,99011.31
2023-02-22T12:52:54.892Z,99012.03
2023-02-22T12:55:27.739Z,99013.56
2023-02-22T12:58:02.484Z,99004.13
2023-02-22T13:00:40.698Z,98994.72
2023-02-22T13:03:39.201Z,98996.47
2023-02-22T13:06:38.395Z,98996.34
2023-02-22T13:09:35.693Z,98997.19
2023-02-22T13:12:12.772Z,98996.13
2023-02-22T13:14:59.706Z,98990.94
2023-02-22T13:17:38.301Z,98989.16
2023-02-22T13:20:19.639Z,98988.13
2023-02-22T13:22:56.826Z,98991.38
2023-02-22T13:25:30.146Z,98985.22
2023-02-22T13:28:07.191Z,98984.31
2023-02-22T13:30:45.294Z,98978.97
2023-02-22T13:33:40.999Z,98970.47
2023-02-22T13:36:37.648Z,98972.13
2023-02-22T13:39:44.146Z,98967.00
2023-02-22T13:42:51.015Z,98967.69
2023-02-22T13:46:01.560Z,98965.97
2023-02-22T13:49:12.417Z,98963.28
2023-02-22T13:51:49.309Z,98959.78
2023-02-22T13:54:25.295Z,98957.03
2023-02-22T13:56:57.132Z,98960.25
2023-02-22T13:59:36.043Z,98959.34
2023-02-22T14:02:08.080Z,98957.50
2023-02-22T14:04:42.972Z,98959.09
2023-02-22T14:07:58.070Z,98947.28
2023-02-22T14:10:56.232Z,98956.78
2023-02-22T14:13:26.697Z,98958.31
2023-02-22T14:16:20.757Z,98952.38
2023-02-22T14:19:06.634Z,98955.75
2023-02-22T14:21:36.313Z,98958.19
2023-02-22T14:24:15.653Z,98967.63
2023-02-22T14:26:59.906Z,98955.63
2023-02-22T14:29:28.629Z,98948.75
2023-02-22T14:32:07.886Z,98946.13
2023-02-22T14:34:49.861Z,98946.13
2023-02-22T14:37:25.115Z,98946.91
2023-02-22T14:40:02.296Z,98945.16
2023-02-22T14:42:34.922Z,98946.00
2023-02-22T14:45:18.266Z,98940.03
2023-02-22T14:48:01.148Z,98941.69
2023-02-22T14:50:48.770Z,98950.28
2023-02-22T14:53:27.617Z,98948.66
2023-02-22T14:56:02.652Z,98948.66
2023-02-22T14:58:39.446Z,98948.66
2023-02-22T15:01:44.377Z,98950.50
2023-02-22T15:04:21.886Z,98952.16
2023-02-22T15:06:52.843Z,98947.16
2023-02-22T15:09:27.695Z,98947.03
2023-02-22T15:12:14.680Z,98947.03
2023-02-22T15:14:47.593Z,98946.19
2023-02-22T15:17:21.589Z,98947.03
2023-02-22T15:19:51.143Z,98947.03
2023-02-22T15:22:28.797Z,98947.84
2023-02-22T15:25:02.646Z,98947.94
2023-02-22T15:27:36.814Z,98935.16
2023-02-22T15:30:10.159Z,98945.41
2023-02-22T15:32:56.959Z,98937.72
2023-02-22T15:35:33.521Z,98938.66
2023-02-22T15:38:13.541Z,98933.53
2023-02-22T15:40:45.163Z,98934.47
2023-02-22T15:43:24.272Z,98932.72
2023-02-22T15:45:54.353Z,98938.66
2023-02-22T15:48:26.301Z,98931.94
2023-02-22T15:51:09.395Z,98926.81
2023-02-22T15:53:44.469Z,98921.78
2023-02-22T15:56:17.724Z,98925.16
2023-02-22T15:58:48.460Z,98920.97
2023-02-22T16:01:20.036Z,98929.44
2023-02-22T16:03:51.701Z,98936.31
2023-02-22T16:06:30.536Z,98936.31
2023-02-22T16:09:02.695Z,98931.44
2023-02-22T16:11:35.056Z,98941.56
2023-02-22T16:14:06.927Z,98938.28
2023-02-22T16:16:41.605Z,98950.28
2023-02-22T16:19:35.831Z,98947.84
2023-02-22T16:22:14.056Z,98942.84
2023-02-22T16:24:44.666Z,98941.19
2023-02-22T16:27:22.073Z,98946.44
2023-02-22T16:30:18.762Z,98946.56
2023-02-22T16:32:53.753Z,98947.59
2023-02-22T16:35:28.459Z,98948.38
2023-02-22T16:38:01.506Z,98951.06
2023-02-22T16:40:34.814Z,98952.09
2023-02-22T16:43:05.996Z,98950.47
2023-02-22T16:45:36.213Z,98958.25
2023-02-22T16:48:17.025Z,98966.03
2023-02-22T16:50:50.250Z,98965.34
2023-02-22T16:53:22.870Z,98963.72
2023-02-22T16:55:57.835Z,98966.50
2023-02-22T16:58:28.602Z,98964.88
2023-02-22T17:00:59.374Z,98962.44
2023-02-22T17:03:28.509Z,98965.91
2023-02-22T17:05:57.271Z,98965.09
2023-02-22T17:08:26.095Z,98961.72
2023-02-22T17:10:57.705Z,98971.13
2023-02-22T17:13:29.319Z,98966.94
2023-02-22T17:15:58.856Z,98967.88
2023-02-22T17:18:33.974Z,98970.41
2023-02-22T17:21:06.099Z,98972.97
2023-02-22T17:23:34.823Z,98978.22
2023-02-22T17:26:06.095Z,98979.13
2023-02-22T17:28:34.783Z,98990.31
2023-02-22T17:31:03.698Z,98985.19
2023-02-22T17:33:34.946Z,98994.56
2023-02-22T17:36:06.305Z,98991.22
2023-02-22T17:38:35.243Z,98997.25
2023-02-22T17:41:08.814Z,98999.00
2023-02-22T17:43:37.439Z,98994.00
2023-02-22T17:46:09.044Z,98996.63
2023-02-22T17:48:38.320Z,98995.03
2023-02-22T17:51:08.827Z,99000.16
2023-02-22T17:53:38.267Z,98998.63
2023-02-22T17:56:12.463Z,98996.19
2023-02-22T17:58:42.225Z,98995.47
2023-02-22T18:01:22.440Z,98997.34
2023-02-22T18:03:51.410Z,99003.47
2023-02-22T18:06:25.172Z,98998.47
2023-02-22T18:08:56.767Z,98991.84
2023-02-22T18:11:32.607Z,98998.78
2023-02-22T18:14:02.269Z,99002.25
2023-02-22T18:16:31.033Z,98994.81
2023-02-22T18:19:01.669Z,99005.03
2023-02-22T18:21:33.387Z,98999.31
2023-02-22T18:24:02.072Z,99007.94
2023-02-22T18:26:32.142Z,99006.28
2023-02-22T18:29:01.159Z,99000.47
2023-02-22T18:31:29.927Z,99002.31
2023-02-22T18:33:58.690Z,99002.44
2023-02-22T18:36:27.472Z,99000.00
2023-02-22T18:38:56.576Z,99000.91
2023-02-22T18:41:26.471Z,99002.75
2023-02-22T18:44:01.212Z,99000.31
2023-02-22T18:46:30.687Z,99004.59
2023-02-22T18:48:59.993Z,99012.38
2023-02-22T18:51:30.406Z,99005.63
2023-02-22T18:54:01.080Z,99004.88
2023-02-22T18:56:31.318Z,99005.00
2023-02-22T18:59:04.020Z,99005.94
2023-02-22T19:01:39.117Z,99003.59
2023-02-22T19:04:11.993Z,99001.13
2023-02-22T19:06:41.073Z,99003.00
2023-02-22T19:09:09.750Z,99012.38
2023-02-22T19:11:40.562Z,99004.03
2023-02-22T19:14:11.555Z,99009.13
2023-02-22T19:16:40.699Z,99000.56
2023-02-22T19:19:09.319Z,99007.38
2023-02-22T19:21:37.962Z,99004.03
2023-02-22T19:24:07.824Z,98998.19
2023-02-22T19:26:36.506Z,99001.66
2023-02-22T19:29:08.458Z,99000.97
2023-02-22T19:31:40.883Z,98999.34
2023-02-22T19:34:12.397Z,99006.31
2023-02-22T19:36:43.015Z,99006.31
2023-02-22T19:39:11.803Z,99005.47
2023-02-22T19:41:40.578Z,99002.91
2023-02-22T19:44:09.648Z,98987.69
2023-02-22T19:46:40.151Z,98994.44
2023-02-22T19:49:09.197Z,99002.22
2023-02-22T19:51:37.841Z,99003.03
2023-02-22T19:54:08.626Z,99004.78
2023-02-22T19:56:37.307Z,99003.94
2023-02-22T19:59:12.586Z,99005.56
2023-02-22T20:01:44.564Z,99012.31
2023-02-22T20:04:18.174Z,99007.44
2023-02-22T20:06:48.445Z,99007.44
2023-02-22T20:09:19.373Z,99013.47
2023-02-22T20:11:48.687Z,99011.81
2023-02-22T20:14:19.326Z,99014.38
2023-02-22T20:16:49.399Z,99010.19
2023-02-22T20:19:18.020Z,99021.22
2023-02-22T20:21:46.887Z,99012.66
2023-02-22T20:24:18.342Z,99016.94
2023-02-22T20:26:47.936Z,99019.59
2023-02-22T20:29:17.862Z,99024.69
2023-02-22T20:31:53.650Z,99021.34
2023-02-22T20:34:24.099Z,99021.34
2023-02-22T20:36:54.690Z,99023.06
2023-02-22T20:39:23.428Z,99024.81
2023-02-22T20:41:52.695Z,99025.72
2023-02-22T20:44:21.816Z,99020.63
2023-02-22T20:46:51.779Z,99017.38
2023-02-22T20:49:21.638Z,99021.63
2023-02-22T20:51:50.912Z,99021.75
2023-02-22T20:54:19.774Z,99025.22
2023-02-22T20:56:49.907Z,99027.75
2023-02-22T20:59:21.149Z,99030.31
2023-02-22T21:01:53.128Z,99027.06
2023-02-22T21:04:23.291Z,99029.63
2023-02-22T21:06:52.273Z,99029.72
2023-02-22T21:09:22.513Z,99023.09
2023-02-22T21:11:51.495Z,99025.66
2023-02-22T21:14:20.388Z,99026.56
2023-02-22T21:16:52.863Z,99019.00
2023-02-22T21:19:26.277Z,99019.00
2023-02-22T21:22:01.288Z,99022.38
2023-02-22T21:24:31.184Z,99018.28
2023-02-22T21:27:00.271Z,99023.28
2023-02-22T21:29:34.853Z,99019.81
2023-02-22T21:32:05.726Z,99020.72
2023-02-22T21:34:35.004Z,99025.84
2023-02-22T21:37:08.093Z,99032.78
2023-02-22T21:39:37.097Z,99028.38
2023-02-22T21:42:07.350Z,99028.38
2023-02-22T21:44:35.996Z,99038.59
2023-02-22T21:47:06.142Z,99020.84
2023-02-22T21:49:34.921Z,99031.88
2023-02-22T21:52:04.414Z,99030.25
2023-02-22T21:54:33.329Z,99028.59
2023-02-22T21:57:02.029Z,99028.59
2023-02-22T21:59:30.671Z,99034.63
2023-02-22T22:01:59.374Z,99037.16
2023-02-22T22:04:31.361Z,99025.34
2023-02-22T22:07:03.842Z,99027.06
2023-02-22T22:09:37.038Z,99032.19
2023-02-22T22:12:06.403Z,99030.47
2023-02-22T22:14:36.185Z,99029.63
2023-02-22T22:17:08.064Z,99028.72
2023-02-22T22:19:40.521Z,99029.50
2023-02-22T22:22:09.602Z,99025.34
2023-02-22T22:24:41.515Z,99028.72
2023-02-22T22:27:12.883Z,99018.72
2023-02-22T22:29:43.508Z,99021.28
2023-02-22T22:32:12.421Z,99022.06
2023-02-22T22:34:43.305Z,99024.63
2023-02-22T22:37:13.240Z,99022.91
2023-02-22T22:39:42.542Z,99023.72
2023-02-22T22:42:11.858Z,99021.16
2023-02-22T22:44:42.392Z,99026.97
2023-02-22T22:47:12.521Z,99018.63
2023-02-22T22:49:42.741Z,99021.84
2023-02-22T22:52:13.986Z,99017.69
2023-02-22T22:54:44.083Z,99016.06
2023-02-22T22:57:13.495Z,99016.06
2023-02-22T22:59:42.102Z,99014.31
2023-02-22T23:02:11.549Z,99019.41
2023-02-22T23:04:41.630Z,99022.91
2023-02-22T23:07:10.319Z,99021.16
2023-02-22T23:09:39.559Z,99023.59
2023-02-22T23:12:17.749Z,99021.06
2023-02-22T23:14:47.167Z,99026.16
2023-02-22T23:17:31.111Z,99017.69
2023-02-22T23:20:01.518Z,99023.72
2023-02-22T23:22:30.215Z,99019.53
2023-02-22T23:25:01.085Z,99024.63
2023-02-22T23:27:30.427Z,99026.28
2023-02-22T23:29:59.422Z,99021.16
2023-02-22T23:32:28.336Z,99025.47
2023-02-22T23:34:57.227Z,99026.28
2023-02-22T23:37:27.276Z,99026.28
2023-02-22T23:39:56.003Z,99033.13
2023-02-22T23:42:24.619Z,99024.63
2023-02-22T23:44:53.896Z,99023.00
2023-02-22T23:47:22.731Z,99031.59
2023-02-22T23:49:51.338Z,99028.19
2023-02-22T23:52:24.108Z,99027.41
2023-02-22T23:54:54.616Z,99032.50
2023-02-22T23:57:24.746Z,99019.75
2023-02-22T23:59:53.500Z,99024.03
